Forseti — V2PV4 — position and weather

sailwx.info

Track history (hours):
 
Tides and Currents Weather Stations Pressure Air Temp Water Temp Dewpoint Dewpoint Depression Visibility Wind Speed Wind Dir Waves Ship Positions

Forseti

Last reported at 2014-Aug-19 01:29 UTC. Time now 2014-Aug-21 22:02 UTC.
Position N 55°32' E 015°31'.

Length 85 m; draft 5.4 m.

Type: Cargo ship. MMSI: 304010297.

Date/timePositionNaut miles runAvg speedWind from/ knotsBaromVisibWave heightAir tempDewpointWater temp
2014-Aug-19 01:29N 55°32' E 015°31'8 9.0
2014-Aug-19 00:33N 55°29' E 015°17'9 9.0
2014-Aug-18 23:33N 55°27' E 015°02'9 8.9
2014-Aug-18 22:33N 55°24' E 014°47'9 8.5
2014-Aug-18 21:31N 55°20' E 014°34'8 8.4
2014-Aug-18 20:32N 55°14' E 014°25'43 7.9
2014-Aug-18 15:08N 55°14' E 013°10'4 7.7
2014-Aug-18 14:33N 55°14' E 013°02'7 7.3
2014-Aug-18 13:33N 55°15' E 012°50'7 7.3
2014-Aug-18 12:33N 55°18' E 012°38'7 7.1
2014-Aug-18 11:33N 55°25' E 012°40'8 8.0
2014-Aug-18 10:33N 55°33' E 012°42'8 8.3
2014-Aug-18 09:33N 55°41' E 012°41'8 8.2
2014-Aug-18 08:33N 55°49' E 012°40'8 8.2
2014-Aug-18 07:33N 55°58' E 012°38'8 7.5
2014-Aug-18 06:33N 56°05' E 012°35'9 8.7
2014-Aug-18 05:33N 56°10' E 012°22'8 8.2
2014-Aug-18 04:33N 56°15' E 012°10'7 7.2
2014-Aug-18 03:33N 56°20' E 012°02'76 8.5
2014-Aug-17 18:33N 57°32' E 011°13'9 9.2
2014-Aug-17 17:33N 57°38' E 011°01'10 9.7
2014-Aug-17 16:33N 57°45' E 010°48'10 9.9
2014-Aug-17 15:33N 57°46' E 010°29'1010.4
2014-Aug-17 14:33N 57°42' E 010°11'7210.2
2014-Aug-17 07:27N 57°11' E 008°10'119 9.1
2014-Aug-16 18:27N 56°20' E 004°55'22917.7
2014-Aug-16 05:29N 54°42' W 001°11'37 4.7
2014-Aug-15 21:33N 54°56' W 000°12'9 9.3
2014-Aug-15 20:33N 54°52' W 000°26'10 9.4
2014-Aug-15 19:32N 54°48' W 000°41'9 9.3
2014-Aug-15 18:32N 54°44' W 000°56'9 8.6
2014-Aug-15 17:33N 54°41' W 001°10'1 1.2
2014-Aug-15 16:29N 54°42' W 001°11'0 0.0
2014-Aug-15 15:29N 54°42' W 001°11'0 0.0
2014-Aug-15 14:29N 54°42' W 001°11'0 0.0
2014-Aug-15 13:32N 54°42' W 001°11'0 0.0
2014-Aug-15 12:17N 54°42' W 001°11'0 0.0
2014-Aug-15 11:08N 54°42' W 001°11'0 0.0
2014-Aug-15 10:32N 54°42' W 001°11'0 0.0
2014-Aug-15 09:32N 54°42' W 001°11'0 0.0
2014-Aug-15 08:05N 54°42' W 001°11'0 0.0
2014-Aug-15 07:23N 54°42' W 001°11'0 0.0
2014-Aug-15 06:26N 54°42' W 001°11'0 0.0
2014-Aug-15 05:23N 54°42' W 001°12'0 0.0
2014-Aug-15 04:32N 54°42' W 001°12'0 0.0
2014-Aug-15 02:29N 54°42' W 001°12'0 0.0
2014-Aug-15 01:29N 54°42' W 001°12'0 0.0
2014-Aug-15 00:32N 54°42' W 001°12'0 0.0
2014-Aug-14 23:29N 54°42' W 001°12'0 0.0
2014-Aug-14 18:26N 54°42' W 001°12'0 0.0
2014-Aug-14 17:17N 54°42' W 001°12'0 0.0
2014-Aug-14 16:29N 54°42' W 001°11'0 0.0
2014-Aug-14 15:32N 54°42' W 001°12'0 0.0
2014-Aug-14 14:32N 54°42' W 001°12'0 0.0
2014-Aug-14 13:32N 54°42' W 001°12'0 0.0
2014-Aug-14 12:33N 54°42' W 001°12'1 1.5
2014-Aug-14 11:33N 54°41' W 001°09'1010.0
2014-Aug-14 10:33N 54°37' W 000°53'1110.5
2014-Aug-14 09:32N 54°32' W 000°37'9 9.6
2014-Aug-14 08:34N 54°27' W 000°24'8 8.3
2014-Aug-14 07:33N 54°21' W 000°14'8 7.8
2014-Aug-14 06:34N 54°14' W 000°07'7 7.0
2014-Aug-14 05:34N 54°08' W 000°01'7 6.8
2014-Aug-14 04:34N 54°02' E 000°05'8 8.0
2014-Aug-14 03:33N 53°55' E 000°12'9 9.0
2014-Aug-14 02:33N 53°48' E 000°20'1010.2
2014-Aug-14 01:32N 53°39' E 000°29'1111.3
2014-Aug-14 00:33N 53°28' E 000°33'1111.1
2014-Aug-13 23:32N 53°17' E 000°36'  
2014-Aug-10 01:22N 54°12' E 006°57'7 8.7
2014-Aug-10 00:33N 54°12' E 007°09'8 8.4
2014-Aug-09 23:33N 54°12' E 007°23'8 7.7
2014-Aug-09 22:34N 54°11' E 007°36'7 7.2
2014-Aug-09 21:34N 54°08' E 007°47'7 6.7
2014-Aug-09 20:33N 54°04' E 007°57'6 6.3
2014-Aug-09 19:34N 54°02' E 008°07'6 5.8
2014-Aug-09 18:31N 54°01' E 008°17'8 8.2
2014-Aug-09 17:33N 53°59' E 008°30'1010.4
2014-Aug-09 16:34N 53°52' E 008°44'1111.1
2014-Aug-09 15:34N 53°52' E 009°02'4 4.0
2014-Aug-09 14:34N 53°54' E 009°09'6 6.4
2014-Aug-09 13:33N 53°58' E 009°16'9 8.6
2014-Aug-09 12:33N 54°07' E 009°20'8 7.6
2014-Aug-09 11:33N 54°11' E 009°30'43 5.9
2014-Aug-09 04:17N 54°34' E 010°33'15 8.7
2014-Aug-09 02:33N 54°36' E 010°59'9 8.8
2014-Aug-09 01:34N 54°35' E 011°14'  
Track history (hours):
 
Tides and Currents Weather Stations Pressure Air Temp Water Temp Dewpoint Dewpoint Depression Visibility Wind Speed Wind Dir Waves Ship Positions

Forseti

Last reported at 2014-Aug-19 01:29 UTC. Time now 2014-Aug-21 22:02 UTC.
Position N 55°32' E 015°31'.

Length 85 m; draft 5.4 m.

Type: Cargo ship. MMSI: 304010297.

Date/timePositionNaut miles runAvg speedWind from/ knotsBaromVisibWave heightAir tempDewpointWater temp
2014-Aug-19 01:29N 55°32' E 015°31'8 9.0
2014-Aug-19 00:33N 55°29' E 015°17'9 9.0
2014-Aug-18 23:33N 55°27' E 015°02'9 8.9
2014-Aug-18 22:33N 55°24' E 014°47'9 8.5
2014-Aug-18 21:31N 55°20' E 014°34'8 8.4
2014-Aug-18 20:32N 55°14' E 014°25'43 7.9
2014-Aug-18 15:08N 55°14' E 013°10'4 7.7
2014-Aug-18 14:33N 55°14' E 013°02'7 7.3
2014-Aug-18 13:33N 55°15' E 012°50'7 7.3
2014-Aug-18 12:33N 55°18' E 012°38'7 7.1
2014-Aug-18 11:33N 55°25' E 012°40'8 8.0
2014-Aug-18 10:33N 55°33' E 012°42'8 8.3
2014-Aug-18 09:33N 55°41' E 012°41'8 8.2
2014-Aug-18 08:33N 55°49' E 012°40'8 8.2
2014-Aug-18 07:33N 55°58' E 012°38'8 7.5
2014-Aug-18 06:33N 56°05' E 012°35'9 8.7
2014-Aug-18 05:33N 56°10' E 012°22'8 8.2
2014-Aug-18 04:33N 56°15' E 012°10'7 7.2
2014-Aug-18 03:33N 56°20' E 012°02'76 8.5
2014-Aug-17 18:33N 57°32' E 011°13'9 9.2
2014-Aug-17 17:33N 57°38' E 011°01'10 9.7
2014-Aug-17 16:33N 57°45' E 010°48'10 9.9
2014-Aug-17 15:33N 57°46' E 010°29'1010.4
2014-Aug-17 14:33N 57°42' E 010°11'7210.2
2014-Aug-17 07:27N 57°11' E 008°10'119 9.1
2014-Aug-16 18:27N 56°20' E 004°55'22917.7
2014-Aug-16 05:29N 54°42' W 001°11'37 4.7
2014-Aug-15 21:33N 54°56' W 000°12'9 9.3
2014-Aug-15 20:33N 54°52' W 000°26'10 9.4
2014-Aug-15 19:32N 54°48' W 000°41'9 9.3
2014-Aug-15 18:32N 54°44' W 000°56'9 8.6
2014-Aug-15 17:33N 54°41' W 001°10'1 1.2
2014-Aug-15 16:29N 54°42' W 001°11'0 0.0
2014-Aug-15 15:29N 54°42' W 001°11'0 0.0
2014-Aug-15 14:29N 54°42' W 001°11'0 0.0
2014-Aug-15 13:32N 54°42' W 001°11'0 0.0
2014-Aug-15 12:17N 54°42' W 001°11'0 0.0
2014-Aug-15 11:08N 54°42' W 001°11'0 0.0
2014-Aug-15 10:32N 54°42' W 001°11'0 0.0
2014-Aug-15 09:32N 54°42' W 001°11'0 0.0
2014-Aug-15 08:05N 54°42' W 001°11'0 0.0
2014-Aug-15 07:23N 54°42' W 001°11'0 0.0
2014-Aug-15 06:26N 54°42' W 001°11'0 0.0
2014-Aug-15 05:23N 54°42' W 001°12'0 0.0
2014-Aug-15 04:32N 54°42' W 001°12'0 0.0
2014-Aug-15 02:29N 54°42' W 001°12'0 0.0
2014-Aug-15 01:29N 54°42' W 001°12'0 0.0
2014-Aug-15 00:32N 54°42' W 001°12'0 0.0
2014-Aug-14 23:29N 54°42' W 001°12'0 0.0
2014-Aug-14 18:26N 54°42' W 001°12'0 0.0
2014-Aug-14 17:17N 54°42' W 001°12'0 0.0
2014-Aug-14 16:29N 54°42' W 001°11'0 0.0
2014-Aug-14 15:32N 54°42' W 001°12'0 0.0
2014-Aug-14 14:32N 54°42' W 001°12'0 0.0
2014-Aug-14 13:32N 54°42' W 001°12'0 0.0
2014-Aug-14 12:33N 54°42' W 001°12'1 1.5
2014-Aug-14 11:33N 54°41' W 001°09'1010.0
2014-Aug-14 10:33N 54°37' W 000°53'1110.5
2014-Aug-14 09:32N 54°32' W 000°37'9 9.6
2014-Aug-14 08:34N 54°27' W 000°24'8 8.3
2014-Aug-14 07:33N 54°21' W 000°14'8 7.8
2014-Aug-14 06:34N 54°14' W 000°07'7 7.0
2014-Aug-14 05:34N 54°08' W 000°01'7 6.8
2014-Aug-14 04:34N 54°02' E 000°05'8 8.0
2014-Aug-14 03:33N 53°55' E 000°12'9 9.0
2014-Aug-14 02:33N 53°48' E 000°20'1010.2
2014-Aug-14 01:32N 53°39' E 000°29'1111.3
2014-Aug-14 00:33N 53°28' E 000°33'1111.1
2014-Aug-13 23:32N 53°17' E 000°36'  
2014-Aug-10 01:22N 54°12' E 006°57'7 8.7
2014-Aug-10 00:33N 54°12' E 007°09'8 8.4
2014-Aug-09 23:33N 54°12' E 007°23'8 7.7
2014-Aug-09 22:34N 54°11' E 007°36'7 7.2
2014-Aug-09 21:34N 54°08' E 007°47'7 6.7
2014-Aug-09 20:33N 54°04' E 007°57'6 6.3
2014-Aug-09 19:34N 54°02' E 008°07'6 5.8
2014-Aug-09 18:31N 54°01' E 008°17'8 8.2
2014-Aug-09 17:33N 53°59' E 008°30'1010.4
2014-Aug-09 16:34N 53°52' E 008°44'1111.1
2014-Aug-09 15:34N 53°52' E 009°02'4 4.0
2014-Aug-09 14:34N 53°54' E 009°09'6 6.4
2014-Aug-09 13:33N 53°58' E 009°16'9 8.6
2014-Aug-09 12:33N 54°07' E 009°20'8 7.6
2014-Aug-09 11:33N 54°11' E 009°30'43 5.9
2014-Aug-09 04:17N 54°34' E 010°33'15 8.7
2014-Aug-09 02:33N 54°36' E 010°59'9 8.8
2014-Aug-09 01:34N 54°35' E 011°14'  

Dump ship's entire track history